Flight Track Log - Related Links

Times and Time Zones

All times are in EDT time to prevent confusion due to time zone crossing. See the DAL3673 flight status page for this flight to view local times or setup timezone preferences in your user account.

Time Position Orientation Groundspeed Altitude Reporting Facility
EDT Latitude Longitude Course Direction KTS MPH feet Rate Location/Type
Fri 03:43:24 PM 44.8847 -93.2756 262° West 167 192 3,200  Level FAA TRACON SMA TRACON (SMA)
Fri 03:43:44 PM 44.8825 -93.2986 262° West 188 216 4,000 2,700 Climbing FAA TRACON SMA TRACON (SMA)
Fri 03:44:04 PM 44.8778 -93.3286 257° West 204 235 5,000 2,000 Climbing FAA TRACON SMA TRACON (SMA)
Fri 03:44:23 PM 44.8650 -93.3503 230° Southwest 232 267 5,300 1,500 Climbing FAA TRACON SMA TRACON (SMA)
Fri 03:44:44 PM 44.8425 -93.3583 194° South 270 311 6,000 2,927 Climbing FAA TRACON SMA TRACON (SMA)
Fri 03:45:04 PM 44.8161 -93.3417 156° South 282 325 7,300 3,150 Climbing FAA TRACON SMA TRACON (SMA)
Fri 03:45:24 PM 44.7994 -93.3192 136° Southeast 273 314 8,100 2,341 Climbing FAA TRACON SMA TRACON (SMA)
Fri 03:45:45 PM 44.7792 -93.2861 131° Southeast 286 329 8,900 2,488 Climbing FAA TRACON SMA TRACON (SMA)
Fri 03:46:05 PM 44.7644 -93.2575 126° Southeast 294 338 9,800 2,250 Climbing FAA TRACON SMA TRACON (SMA)
Fri 03:46:25 PM 44.7497 -93.2289 126° Southeast 295 339 10,400 1,200 Climbing FAA TRACON SMA TRACON (SMA)
Fri 03:46:45 PM 44.7308 -93.1911 125° Southeast 304 350 10,600 450 Climbing FAA TRACON SMA TRACON (SMA)
Fri 03:47:05 PM 44.7144 -93.1586 125° Southeast 325 374 10,700 600 Climbing FAA TRACON SMA TRACON (SMA)
Fri 03:47:25 PM 44.6972 -93.1250 126° Southeast 341 392 11,000 450 Climbing FAA TRACON SMA TRACON (SMA)
Fri 03:47:45 PM 44.6750 -93.0811 125° Southeast 355 409 11,000  Level FAA TRACON SMA TRACON (SMA)
Fri 03:48:05 PM 44.6569 -93.0458 126° Southeast 362 417 11,000  Level FAA TRACON SMA TRACON (SMA)
Fri 03:48:25 PM 44.6381 -93.0097 126° Southeast 369 425 11,000  Level FAA TRACON SMA TRACON (SMA)
Fri 03:48:44 PM 44.6150 -92.9642 125° Southeast 375 432 11,000  Level FAA TRACON SMA TRACON (SMA)
Fri 03:49:05 PM 44.5961 -92.9269 125° Southeast 378 435 11,000  Level FAA TRACON SMA TRACON (SMA)
Fri 03:49:25 PM 44.5767 -92.8903 127° Southeast 381 438 11,000  Level FAA TRACON SMA TRACON (SMA)
Fri 03:49:45 PM 44.5522 -92.8442 127° Southeast 384 442 11,000  Level FAA TRACON SMA TRACON (SMA)
Fri 03:50:05 PM 44.5336 -92.8056 124° Southeast 387 445 11,000  Level FAA TRACON SMA TRACON (SMA)
Fri 03:50:24 PM 44.5133 -92.7689 128° Southeast 387 445 11,000  Level FAA TRACON SMA TRACON (SMA)
Fri 03:50:44 PM 44.4900 -92.7222 125° Southeast 383 441 11,000  Level FAA TRACON SMA TRACON (SMA)
Fri 03:51:04 PM 44.4706 -92.6858 127° Southeast 380 437 11,000  Level FAA TRACON SMA TRACON (SMA)
Fri 03:51:24 PM 44.4514 -92.6492 126° Southeast 379 436 11,000  Level FAA TRACON SMA TRACON (SMA)
Fri 03:51:45 PM 44.4283 -92.6031 125° Southeast 377 434 11,000  Level FAA TRACON SMA TRACON (SMA)
Fri 03:52:05 PM 44.4089 -92.5669 127° Southeast 376 433 11,000  Level FAA TRACON SMA TRACON (SMA)
Fri 03:52:25 PM 44.3903 -92.5306 126° Southeast 374 430 11,000  Level FAA TRACON SMA TRACON (SMA)
Fri 03:52:45 PM 44.3672 -92.4847 125° Southeast 374 430 11,000  Level FAA TRACON SMA TRACON (SMA)
Fri 03:53:05 PM 44.3478 -92.4500 128° Southeast 372 428 11,000  Level FAA TRACON SMA TRACON (SMA)
Fri 03:53:25 PM 44.3317 -92.4119 121° Southeast 371 427 11,000  Level FAA TRACON SMA TRACON (SMA)
Fri 03:53:45 PM 44.3108 -92.3656 122° Southeast 369 425 11,000  Level FAA TRACON SMA TRACON (SMA)
Fri 03:54:05 PM 44.2956 -92.3267 119° Southeast 367 422 11,000  Level FAA TRACON SMA TRACON (SMA)
Fri 03:54:25 PM 44.2803 -92.2892 120° Southeast 364 419 11,000  Level FAA TRACON SMA TRACON (SMA)
Fri 03:54:45 PM 44.2611 -92.2417 119° Southeast 362 417 11,000  Level FAA TRACON SMA TRACON (SMA)
Fri 03:55:05 PM 44.2444 -92.2061 123° Southeast 359 413 11,000  Level FAA TRACON SMA TRACON (SMA)
Fri 03:55:25 PM 44.2306 -92.1808 127° Southeast 357 411 11,000  Level FAA TRACON SMA TRACON (SMA)
Fri 03:56:12 PM 44.1692 -92.0942 135° Southeast 350 403 11,000  Level Minneapolis Center
Fri 03:57:14 PM 44.1089 -91.9942 130° Southeast 341 392 11,000  Level Minneapolis Center
Fri 03:58:15 PM 44.0433 -91.8881 131° Southeast 339 390 11,000 -537 Level Minneapolis Center
Fri 03:59:17 PM 43.9886 -91.7986 130° Southeast 303 349 9,900 -1,366 Descending Minneapolis Center
Fri 04:00:18 PM 43.9361 -91.7128 130° Southeast 294 338 8,200 -1,854 Descending Minneapolis Center
Fri 04:01:20 PM 43.8783 -91.6331 135° Southeast 275 316 6,100 -1,935 Descending Minneapolis Center
Fri 04:02:22 PM 43.8275 -91.5636 135° Southeast 261 300 4,200 -1,024 Descending Minneapolis Center
Fri 04:03:23 PM 43.7708 -91.4878 136° Southeast 264 304 4,000 -341 Descending Minneapolis Center
Fri 04:04:25 PM 43.7222 -91.4200 135° Southeast 259 298 3,500 -242 Descending Minneapolis Center
Fri 04:05:27 PM 43.6964 -91.3486 117° Southeast 244 281 3,500  Level Minneapolis Center
Fri 04:06:28 PM 43.7300 -91.2803 56° Northeast 207 238 3,500 -341 Level Minneapolis Center
Fri 04:07:30 PM 43.7792 -91.2711 North 184 212 2,800 -677 Descending Minneapolis Center
Fri 04:09:00 PM 43.8531 -91.2500 North  Level FlightAware Approximate

Login

Don't have an account? Register now (free) for customized features, flight alerts, and more!